createdAt,value
2018-10-19T00:01:58.420Z,44.37
2018-10-19T00:04:26.899Z,36.57
2018-10-19T00:06:55.349Z,38.07
2018-10-19T00:09:23.851Z,32.27
2018-10-19T00:11:52.368Z,28.73
2018-10-19T00:14:20.842Z,34.93
2018-10-19T00:16:49.305Z,30.93
2018-10-19T00:19:17.814Z,30.40
2018-10-19T00:21:46.277Z,34.80
2018-10-19T00:24:14.783Z,34.10
2018-10-19T00:26:43.257Z,33.10
2018-10-19T00:29:11.852Z,36.50
2018-10-19T00:31:40.395Z,34.77
2018-10-19T00:34:09.399Z,33.93
2018-10-19T00:36:37.907Z,33.37
2018-10-19T00:39:08.782Z,31.93
2018-10-19T00:41:37.209Z,34.43
2018-10-19T00:44:05.904Z,30.63
2018-10-19T00:46:34.360Z,30.90
2018-10-19T00:49:03.135Z,32.73
2018-10-19T00:51:31.635Z,32.67
2018-10-19T00:54:00.174Z,30.60
2018-10-19T00:56:28.623Z,29.87
2018-10-19T00:58:57.108Z,29.23
2018-10-19T01:01:25.526Z,28.17
2018-10-19T01:03:54.067Z,29.90
2018-10-19T01:06:22.511Z,32.93
2018-10-19T01:08:51.004Z,36.93
2018-10-19T01:11:19.447Z,30.97
2018-10-19T01:13:47.910Z,27.03
2018-10-19T01:16:17.137Z,29.30
2018-10-19T01:18:45.632Z,29.00
2018-10-19T01:21:14.143Z,31.83
2018-10-19T01:23:42.543Z,29.00
2018-10-19T01:26:11.129Z,30.30
2018-10-19T01:28:39.600Z,28.70
2018-10-19T01:31:08.126Z,28.57
2018-10-19T01:33:36.580Z,31.87
2018-10-19T01:36:06.494Z,29.60
2018-10-19T01:38:35.570Z,27.43
2018-10-19T01:41:04.132Z,28.23
2018-10-19T01:43:32.629Z,31.80
2018-10-19T01:46:01.087Z,28.03
2018-10-19T01:48:29.775Z,28.00
2018-10-19T01:50:58.999Z,24.33
2018-10-19T01:53:27.739Z,27.47
2018-10-19T01:55:56.200Z,32.90
2018-10-19T01:58:24.649Z,27.10
2018-10-19T02:00:53.124Z,26.97
2018-10-19T02:03:21.606Z,28.67
2018-10-19T02:05:50.066Z,24.73
2018-10-19T02:08:18.552Z,27.37
2018-10-19T02:10:47.005Z,25.73
2018-10-19T02:13:15.417Z,26.87
2018-10-19T02:15:43.887Z,23.43
2018-10-19T02:18:12.374Z,22.27
2018-10-19T02:20:40.923Z,24.30
2018-10-19T02:23:09.429Z,22.70
2018-10-19T02:25:37.836Z,23.33
2018-10-19T02:28:06.335Z,26.03
2018-10-19T02:30:34.800Z,24.03
2018-10-19T02:33:03.241Z,23.27
2018-10-19T02:35:31.669Z,23.10
2018-10-19T02:38:00.641Z,22.33
2018-10-19T02:40:29.093Z,22.60
2018-10-19T02:42:57.594Z,23.90
2018-10-19T02:45:26.036Z,23.87
2018-10-19T02:47:54.485Z,21.93
2018-10-19T02:50:22.925Z,24.17
2018-10-19T02:52:51.442Z,24.70
2018-10-19T02:55:19.894Z,18.77
2018-10-19T02:57:48.311Z,19.80
2018-10-19T03:00:16.763Z,22.10
2018-10-19T03:02:45.257Z,20.87
2018-10-19T03:05:13.687Z,24.73
2018-10-19T03:07:42.105Z,24.70
2018-10-19T03:10:10.537Z,27.77
2018-10-19T03:12:39.625Z,23.70
2018-10-19T03:15:08.695Z,19.10
2018-10-19T03:17:37.191Z,21.30
2018-10-19T03:20:07.162Z,23.57
2018-10-19T03:22:35.796Z,21.37
2018-10-19T03:25:04.310Z,19.13
2018-10-19T03:27:32.933Z,19.37
2018-10-19T03:30:01.382Z,17.53
2018-10-19T03:32:29.874Z,19.87
2018-10-19T03:34:58.371Z,18.83
2018-10-19T03:37:26.888Z,16.60
2018-10-19T03:39:55.382Z,16.10
2018-10-19T03:42:23.933Z,18.37
2018-10-19T03:44:52.389Z,19.87
2018-10-19T03:47:20.920Z,19.63
2018-10-19T03:49:49.366Z,21.40
2018-10-19T03:52:17.819Z,23.63
2018-10-19T03:54:46.292Z,21.47
2018-10-19T03:57:15.670Z,21.97
2018-10-19T03:59:44.080Z,20.13
2018-10-19T04:02:12.632Z,18.23
2018-10-19T04:04:41.190Z,14.87
2018-10-19T04:07:09.651Z,15.37
2018-10-19T04:09:38.137Z,15.40
2018-10-19T04:12:06.612Z,17.90
2018-10-19T04:14:37.152Z,18.90
2018-10-19T04:17:06.036Z,20.60
2018-10-19T04:19:35.300Z,17.37
2018-10-19T04:22:03.720Z,17.80
2018-10-19T04:24:32.252Z,16.13
2018-10-19T04:27:00.765Z,16.73
2018-10-19T04:29:29.338Z,13.30
2018-10-19T04:31:57.854Z,16.63
2018-10-19T04:34:26.350Z,16.07
2018-10-19T04:37:00.772Z,16.43
2018-10-19T04:39:29.342Z,18.33
2018-10-19T04:41:58.093Z,19.03
2018-10-19T04:44:26.832Z,20.00
2018-10-19T04:46:56.209Z,19.23
2018-10-19T04:49:24.664Z,18.00
2018-10-19T04:51:53.188Z,15.23
2018-10-19T04:54:22.009Z,16.43
2018-10-19T04:56:50.491Z,20.50
2018-10-19T04:59:19.207Z,18.80
2018-10-19T05:01:48.727Z,19.07
2018-10-19T05:04:18.017Z,19.97
2018-10-19T05:06:46.859Z,19.73
2018-10-19T05:09:15.250Z,19.43
2018-10-19T05:11:43.719Z,15.63
2018-10-19T05:14:12.265Z,14.37
2018-10-19T05:16:41.642Z,16.30
2018-10-19T05:19:10.055Z,17.97
2018-10-19T05:21:38.724Z,19.73
2018-10-19T05:24:07.943Z,18.73
2018-10-19T05:26:36.436Z,16.27
2018-10-19T05:29:05.267Z,17.47
2018-10-19T05:31:34.293Z,16.50
2018-10-19T05:34:02.772Z,18.80
2018-10-19T05:36:31.438Z,17.53
2018-10-19T05:38:59.946Z,18.33
2018-10-19T05:41:28.381Z,17.23
2018-10-19T05:43:56.906Z,16.17
2018-10-19T05:46:25.328Z,19.10
2018-10-19T05:48:53.876Z,16.43
2018-10-19T05:51:22.419Z,16.30
2018-10-19T05:53:50.840Z,14.97
2018-10-19T05:56:20.211Z,15.47
2018-10-19T05:58:48.700Z,19.83
2018-10-19T06:01:17.131Z,21.47
2018-10-19T06:03:45.579Z,20.63
2018-10-19T06:06:14.064Z,23.33
2018-10-19T06:08:42.479Z,20.73
2018-10-19T06:11:11.040Z,22.03
2018-10-19T06:13:39.424Z,29.60
2018-10-19T06:16:07.883Z,27.60
2018-10-19T06:18:36.267Z,30.70
2018-10-19T06:21:05.798Z,34.77
2018-10-19T06:23:34.747Z,33.83
2018-10-19T06:26:03.319Z,37.30
2018-10-19T06:28:32.429Z,34.23
2018-10-19T06:31:01.073Z,40.43
2018-10-19T06:33:29.893Z,34.87
2018-10-19T06:35:59.427Z,31.03
2018-10-19T06:38:28.507Z,30.17
2018-10-19T06:40:57.013Z,32.40
2018-10-19T06:43:26.083Z,29.90
2018-10-19T06:45:54.610Z,29.23
2018-10-19T06:48:25.089Z,29.83
2018-10-19T06:50:54.503Z,27.77
2018-10-19T06:53:22.994Z,25.90
2018-10-19T06:55:51.600Z,25.83
2018-10-19T06:58:21.015Z,28.63
2018-10-19T07:00:49.595Z,28.83
2018-10-19T07:03:18.122Z,32.57
2018-10-19T07:05:47.087Z,28.90
2018-10-19T07:08:15.730Z,27.70
2018-10-19T07:10:44.209Z,27.30
2018-10-19T07:13:12.718Z,22.33
2018-10-19T07:15:41.381Z,25.83
2018-10-19T07:18:10.240Z,23.07
2018-10-19T07:20:38.711Z,20.87
2018-10-19T07:23:07.407Z,22.90
2018-10-19T07:25:36.708Z,23.60
2018-10-19T07:28:05.420Z,21.53
2018-10-19T07:30:34.430Z,27.40
2018-10-19T07:33:02.940Z,32.80
2018-10-19T07:35:31.424Z,27.00
2018-10-19T07:37:59.944Z,24.57
2018-10-19T07:40:28.380Z,21.67
2018-10-19T07:42:57.432Z,19.93
2018-10-19T07:45:25.892Z,18.93
2018-10-19T07:47:57.159Z,20.27
2018-10-19T07:50:25.794Z,22.03
2018-10-19T07:52:55.196Z,17.60
2018-10-19T07:55:23.696Z,18.77
2018-10-19T07:57:52.164Z,20.23
2018-10-19T08:00:20.676Z,20.13
2018-10-19T08:02:49.165Z,18.67
2018-10-19T08:05:17.630Z,19.77
2018-10-19T08:07:46.128Z,16.80
2018-10-19T08:10:15.406Z,17.33
2018-10-19T08:12:43.872Z,19.77
2018-10-19T08:15:12.308Z,20.50
2018-10-19T08:17:40.807Z,18.47
2018-10-19T08:20:10.136Z,22.40
2018-10-19T08:22:38.804Z,20.77
2018-10-19T08:25:07.430Z,22.37
2018-10-19T08:27:37.619Z,21.80
2018-10-19T08:30:06.959Z,19.17
2018-10-19T08:32:35.435Z,22.63
2018-10-19T08:35:03.930Z,25.93
2018-10-19T08:37:32.452Z,21.97
2018-10-19T08:40:00.912Z,21.87
2018-10-19T08:42:29.348Z,25.90
2018-10-19T08:44:57.840Z,22.30
2018-10-19T08:47:26.357Z,23.90
2018-10-19T08:49:59.125Z,22.30
2018-10-19T08:52:27.584Z,21.43
2018-10-19T08:54:56.013Z,20.10
2018-10-19T08:57:24.494Z,20.40
2018-10-19T08:59:52.942Z,17.93
2018-10-19T09:02:21.390Z,24.60
2018-10-19T09:04:50.721Z,22.90
2018-10-19T09:07:19.118Z,22.30
2018-10-19T09:09:47.629Z,20.23
2018-10-19T09:12:16.107Z,25.77
2018-10-19T09:14:54.819Z,28.37
2018-10-19T09:17:23.359Z,26.27
2018-10-19T09:19:52.132Z,24.90
2018-10-19T09:22:21.691Z,26.50
2018-10-19T09:24:50.880Z,28.20
2018-10-19T09:27:19.938Z,26.40
2018-10-19T09:29:48.676Z,28.60
2018-10-19T09:32:17.726Z,33.40
2018-10-19T09:34:46.281Z,27.50
2018-10-19T09:37:15.167Z,28.87
2018-10-19T09:39:43.696Z,31.23
2018-10-19T09:42:12.358Z,28.33
2018-10-19T09:44:40.998Z,33.73
2018-10-19T09:47:09.834Z,34.87
2018-10-19T09:49:38.347Z,35.63
2018-10-19T09:52:06.832Z,34.90
2018-10-19T09:54:36.173Z,36.90
2018-10-19T09:57:04.766Z,33.90
2018-10-19T09:59:33.268Z,39.87
2018-10-19T10:02:01.780Z,39.97
2018-10-19T10:04:30.947Z,40.60
2018-10-19T10:06:59.544Z,37.67
2018-10-19T10:09:27.955Z,41.63
2018-10-19T10:11:57.409Z,42.60
2018-10-19T10:14:25.899Z,40.33
2018-10-19T10:16:54.423Z,41.20
2018-10-19T10:19:22.868Z,39.10
2018-10-19T10:21:51.375Z,40.10
2018-10-19T10:24:20.026Z,38.97
2018-10-19T10:26:48.535Z,39.17
2018-10-19T10:29:17.073Z,36.57
2018-10-19T10:31:45.487Z,38.90
2018-10-19T10:34:13.975Z,41.43
2018-10-19T10:36:42.663Z,34.90
2018-10-19T10:39:12.791Z,39.37
2018-10-19T10:41:43.548Z,37.10
2018-10-19T10:44:12.775Z,38.53
2018-10-19T10:46:41.267Z,40.93
2018-10-19T10:49:09.846Z,37.60
2018-10-19T10:51:38.292Z,37.10
2018-10-19T10:54:06.780Z,38.67
2018-10-19T10:56:35.348Z,42.83
2018-10-19T10:59:03.855Z,33.87
2018-10-19T11:01:32.327Z,39.00
2018-10-19T11:04:00.782Z,38.23
2018-10-19T11:06:29.220Z,38.13
2018-10-19T11:08:57.671Z,40.07
2018-10-19T11:11:26.181Z,38.13
2018-10-19T11:13:54.704Z,37.67
2018-10-19T11:16:23.136Z,41.10
2018-10-19T11:18:51.707Z,35.30
2018-10-19T11:21:20.155Z,37.73
2018-10-19T11:23:48.615Z,36.73
2018-10-19T11:26:17.092Z,35.97
2018-10-19T11:28:45.543Z,35.93
2018-10-19T11:31:14.793Z,34.97
2018-10-19T11:33:43.252Z,37.00
2018-10-19T11:36:11.740Z,37.97
2018-10-19T11:38:40.219Z,36.27
2018-10-19T11:41:08.637Z,34.23
2018-10-19T11:43:37.059Z,36.60
2018-10-19T11:46:05.938Z,39.37
2018-10-19T11:48:35.432Z,36.40
2018-10-19T11:51:03.815Z,32.20
2018-10-19T11:53:32.288Z,35.57
2018-10-19T11:56:00.737Z,34.60
2018-10-19T11:58:29.241Z,36.03
2018-10-19T12:00:57.776Z,35.03
2018-10-19T12:03:26.293Z,38.50
2018-10-19T12:05:54.997Z,34.30
2018-10-19T12:08:25.297Z,32.87
2018-10-19T12:10:53.796Z,36.63
2018-10-19T12:13:22.282Z,35.13
2018-10-19T12:15:50.723Z,37.63
2018-10-19T12:18:19.188Z,41.40
2018-10-19T12:20:47.690Z,38.57
2018-10-19T12:23:16.948Z,35.17
2018-10-19T12:25:46.129Z,31.97
2018-10-19T12:28:15.942Z,33.63
2018-10-19T12:30:44.375Z,35.43
2018-10-19T12:33:13.624Z,34.37
2018-10-19T12:35:41.997Z,37.53
2018-10-19T12:38:10.475Z,37.03
2018-10-19T12:40:38.915Z,35.10
2018-10-19T12:43:07.591Z,35.53
2018-10-19T12:46:47.252Z,35.93
2018-10-19T12:49:17.125Z,32.47
2018-10-19T12:51:45.636Z,44.23
2018-10-19T12:54:14.840Z,37.33
2018-10-19T12:56:43.280Z,35.07
2018-10-19T12:59:11.767Z,32.67
2018-10-19T13:01:40.261Z,33.03
2018-10-19T13:04:08.757Z,31.97
2018-10-19T13:06:37.689Z,33.53
2018-10-19T13:09:09.145Z,34.27
2018-10-19T13:11:37.768Z,37.07
2018-10-19T13:14:06.349Z,33.13
2018-10-19T13:16:34.775Z,33.97
2018-10-19T13:19:03.307Z,33.33
2018-10-19T13:21:32.278Z,36.73
2018-10-19T13:24:00.805Z,34.33
2018-10-19T13:26:29.216Z,34.47
2018-10-19T13:28:57.679Z,29.10
2018-10-19T13:31:27.639Z,34.10
2018-10-19T13:33:56.102Z,37.17
2018-10-19T13:36:24.515Z,34.37
2018-10-19T13:38:52.982Z,34.33
2018-10-19T13:41:21.506Z,35.33
2018-10-19T13:43:49.963Z,32.30
2018-10-19T13:46:18.437Z,31.53
2018-10-19T13:48:46.963Z,32.47
2018-10-19T13:51:15.637Z,28.03
2018-10-19T13:53:49.548Z,31.53
2018-10-19T13:56:18.219Z,30.73
2018-10-19T13:58:46.784Z,29.97
2018-10-19T14:01:15.240Z,30.13
2018-10-19T14:03:44.126Z,30.40
2018-10-19T14:06:12.831Z,29.87
2018-10-19T14:08:41.280Z,36.57
2018-10-19T14:11:09.751Z,31.57
2018-10-19T14:13:38.357Z,33.30
2018-10-19T14:16:07.360Z,30.07
2018-10-19T14:18:35.824Z,29.90
2018-10-19T14:21:04.319Z,31.30
2018-10-19T14:23:32.946Z,29.90
2018-10-19T14:26:01.436Z,30.80
2018-10-19T14:28:30.603Z,32.03
2018-10-19T14:30:59.088Z,32.50
2018-10-19T14:33:29.191Z,27.73
2018-10-19T14:35:57.822Z,27.43
2018-10-19T14:38:26.441Z,30.70
2018-10-19T14:40:54.953Z,29.03
2018-10-19T14:43:23.377Z,30.40
2018-10-19T14:45:54.273Z,31.67
2018-10-19T14:48:23.672Z,32.03
2018-10-19T14:50:52.134Z,33.27
2018-10-19T14:53:21.393Z,31.17
2018-10-19T14:55:49.859Z,28.20
2018-10-19T14:58:18.324Z,29.57
2018-10-19T15:00:47.285Z,31.30
2018-10-19T15:03:15.923Z,35.93
2018-10-19T15:05:44.323Z,29.83
2018-10-19T15:08:13.514Z,28.83
2018-10-19T15:10:42.445Z,31.87
2018-10-19T15:13:10.676Z,30.30
2018-10-19T15:15:39.127Z,31.67
2018-10-19T15:18:07.653Z,30.83
2018-10-19T15:20:36.641Z,33.50
2018-10-19T15:23:05.044Z,33.27
2018-10-19T15:25:33.586Z,31.27
2018-10-19T15:28:02.089Z,29.63
2018-10-19T15:30:30.542Z,26.37
2018-10-19T15:32:58.999Z,32.83
2018-10-19T15:35:27.469Z,30.43
2018-10-19T15:37:56.291Z,31.37
2018-10-19T15:40:25.471Z,31.57
2018-10-19T15:42:53.966Z,29.23
2018-10-19T15:45:22.561Z,31.07
2018-10-19T15:47:51.004Z,32.97
2018-10-19T15:50:19.463Z,29.67
2018-10-19T15:52:47.945Z,26.67
2018-10-19T15:55:16.479Z,29.87
2018-10-19T15:57:44.916Z,30.53
2018-10-19T16:00:13.572Z,28.90
2018-10-19T16:02:42.050Z,29.87
2018-10-19T16:05:10.672Z,29.67
2018-10-19T16:07:39.152Z,29.57
2018-10-19T16:10:07.880Z,31.10
2018-10-19T16:12:36.776Z,28.37
2018-10-19T16:15:06.285Z,34.70
2018-10-19T16:17:34.864Z,32.13
2018-10-19T16:20:03.300Z,37.13
2018-10-19T16:22:31.772Z,31.60
2018-10-19T16:25:00.258Z,36.77
2018-10-19T16:27:28.861Z,34.43
2018-10-19T16:29:57.327Z,38.83
2018-10-19T16:32:25.829Z,34.77
2018-10-19T16:34:54.324Z,33.90
2018-10-19T16:37:22.818Z,36.23
2018-10-19T16:39:51.284Z,37.23
2018-10-19T16:42:19.728Z,32.70
2018-10-19T16:44:50.332Z,35.10
2018-10-19T16:47:18.770Z,28.60
2018-10-19T16:49:47.220Z,30.07
2018-10-19T16:52:15.814Z,30.97
2018-10-19T16:54:44.252Z,33.10
2018-10-19T16:57:12.719Z,32.47
2018-10-19T16:59:41.155Z,40.87
2018-10-19T17:02:09.595Z,28.93
2018-10-19T17:04:38.108Z,29.17
2018-10-19T17:07:06.596Z,30.03
2018-10-19T17:09:36.011Z,27.83
2018-10-19T17:12:04.479Z,26.70
2018-10-19T17:14:32.905Z,25.87
2018-10-19T17:17:01.353Z,32.53
2018-10-19T17:19:29.771Z,28.67
2018-10-19T17:21:58.218Z,24.57
2018-10-19T17:24:26.733Z,26.60
2018-10-19T17:26:55.237Z,25.67
2018-10-19T17:29:23.708Z,30.50
2018-10-19T17:31:52.143Z,25.77
2018-10-19T17:34:20.636Z,26.40
2018-10-19T17:36:49.126Z,28.43
2018-10-19T17:39:17.951Z,29.03
2018-10-19T17:41:46.396Z,33.70
2018-10-19T17:44:15.086Z,31.37
2018-10-19T17:46:43.576Z,36.17
2018-10-19T17:49:12.947Z,35.87
2018-10-19T17:51:41.926Z,35.47
2018-10-19T17:54:10.570Z,37.37
2018-10-19T17:56:39.316Z,40.03
2018-10-19T17:59:07.774Z,35.70
2018-10-19T18:01:38.238Z,35.07
2018-10-19T18:04:06.828Z,40.37
2018-10-19T18:06:35.288Z,37.83
2018-10-19T18:09:04.063Z,33.30
2018-10-19T18:11:32.537Z,36.93
2018-10-19T18:14:01.148Z,33.63
2018-10-19T18:16:30.598Z,37.20
2018-10-19T18:18:59.085Z,33.57
2018-10-19T18:21:27.737Z,31.90
2018-10-19T18:23:56.715Z,32.40
2018-10-19T18:26:25.467Z,33.53
2018-10-19T18:28:54.108Z,34.90
2018-10-19T18:31:22.595Z,29.27
2018-10-19T18:33:51.040Z,33.50
2018-10-19T18:36:19.462Z,38.63
2018-10-19T18:38:47.947Z,40.07
2018-10-19T18:41:16.499Z,35.97
2018-10-19T18:43:44.931Z,37.00
2018-10-19T18:46:13.347Z,41.33
2018-10-19T18:48:41.813Z,36.90
2018-10-19T18:51:10.245Z,38.63
2018-10-19T18:53:38.731Z,35.03
2018-10-19T18:56:07.361Z,36.17
2018-10-19T18:58:35.799Z,35.67
2018-10-19T19:01:04.239Z,31.33
2018-10-19T19:03:32.648Z,35.07
2018-10-19T19:06:01.248Z,32.20
2018-10-19T19:08:29.751Z,34.07
2018-10-19T19:10:58.459Z,43.30
2018-10-19T19:13:29.423Z,36.40
2018-10-19T19:15:58.322Z,35.33
2018-10-19T19:18:27.458Z,36.93
2018-10-19T19:20:55.932Z,43.53
2018-10-19T19:23:24.482Z,41.37
2018-10-19T19:25:58.118Z,40.93
2018-10-19T19:28:26.644Z,38.53
2018-10-19T19:30:55.138Z,41.77
2018-10-19T19:33:28.790Z,38.30
2018-10-19T19:35:57.329Z,41.97
2018-10-19T19:38:25.783Z,43.50
2018-10-19T19:40:59.496Z,42.33
2018-10-19T19:43:27.917Z,37.03
2018-10-19T19:45:56.470Z,40.47
2018-10-19T19:48:30.209Z,40.83
2018-10-19T19:50:58.659Z,49.47
2018-10-19T19:53:27.103Z,45.90
2018-10-19T19:55:55.576Z,41.27
2018-10-19T19:58:24.647Z,40.23
2018-10-19T20:00:53.303Z,40.87
2018-10-19T20:03:21.762Z,38.47
2018-10-19T20:05:50.347Z,38.23
2018-10-19T20:08:18.819Z,38.63
2018-10-19T20:10:47.259Z,36.20
2018-10-19T20:13:15.835Z,37.37
2018-10-19T20:15:44.336Z,41.07
2018-10-19T20:18:12.891Z,43.50
2018-10-19T20:20:41.333Z,37.30
2018-10-19T20:23:09.835Z,35.83
2018-10-19T20:25:38.324Z,35.70
2018-10-19T20:28:06.855Z,38.00
2018-10-19T20:30:35.410Z,38.23
2018-10-19T20:33:03.910Z,38.03
2018-10-19T20:35:32.388Z,35.00
2018-10-19T20:38:01.354Z,35.13
2018-10-19T20:40:29.816Z,42.20
2018-10-19T20:42:58.239Z,40.87
2018-10-19T20:45:26.731Z,41.23
2018-10-19T20:47:55.282Z,41.93
2018-10-19T20:50:23.744Z,35.83
2018-10-19T20:52:52.308Z,34.60
2018-10-19T20:55:20.779Z,37.43
2018-10-19T20:57:49.255Z,36.77
2018-10-19T21:00:17.671Z,35.67
2018-10-19T21:02:46.103Z,33.23
2018-10-19T21:05:14.726Z,35.77
2018-10-19T21:07:43.129Z,31.43
2018-10-19T21:10:12.864Z,38.73
2018-10-19T21:12:41.345Z,33.40
2018-10-19T21:15:12.176Z,36.47
2018-10-19T21:17:41.840Z,34.90
2018-10-19T21:20:11.481Z,35.30
2018-10-19T21:22:39.869Z,32.00
2018-10-19T21:25:09.729Z,33.47
2018-10-19T21:27:38.586Z,39.40
2018-10-19T21:30:08.303Z,34.70
2018-10-19T21:32:37.589Z,37.93
2018-10-19T21:35:06.068Z,34.40
2018-10-19T21:37:35.007Z,34.93
2018-10-19T21:40:03.754Z,36.33
2018-10-19T21:42:32.218Z,43.17
2018-10-19T21:45:00.664Z,42.93
2018-10-19T21:47:29.204Z,45.97
2018-10-19T21:49:58.084Z,41.07
2018-10-19T21:52:26.559Z,38.17
2018-10-19T21:54:55.214Z,38.33
2018-10-19T21:57:23.629Z,37.80
2018-10-19T21:59:52.108Z,29.37
2018-10-19T22:02:20.573Z,35.20
2018-10-19T22:04:49.011Z,32.47
2018-10-19T22:07:17.464Z,34.77
2018-10-19T22:09:45.924Z,36.80
2018-10-19T22:12:15.153Z,39.47
2018-10-19T22:14:43.590Z,39.20
2018-10-19T22:17:13.216Z,34.30
2018-10-19T22:19:41.804Z,34.90
2018-10-19T22:22:10.231Z,35.73
2018-10-19T22:24:38.714Z,33.93
2018-10-19T22:27:07.191Z,33.43
2018-10-19T22:29:35.842Z,32.17
2018-10-19T22:32:04.771Z,32.77
2018-10-19T22:34:33.258Z,34.57
2018-10-19T22:37:01.806Z,33.80
2018-10-19T22:39:30.202Z,32.93
2018-10-19T22:41:58.650Z,33.60
2018-10-19T22:44:27.063Z,33.67
2018-10-19T22:46:59.964Z,35.07
2018-10-19T22:49:29.372Z,35.00
2018-10-19T22:51:57.868Z,32.50
2018-10-19T22:54:26.308Z,34.60
2018-10-19T22:56:55.798Z,36.53
2018-10-19T22:59:25.420Z,33.93
2018-10-19T23:01:53.893Z,31.80
2018-10-19T23:04:22.290Z,31.30
2018-10-19T23:06:50.819Z,31.27
2018-10-19T23:09:19.242Z,32.60
2018-10-19T23:11:47.685Z,32.77
2018-10-19T23:14:16.148Z,34.43
2018-10-19T23:16:44.611Z,40.10
2018-10-19T23:19:13.064Z,40.73
2018-10-19T23:21:42.103Z,41.37
2018-10-19T23:24:10.489Z,31.30
2018-10-19T23:26:38.923Z,27.80
2018-10-19T23:29:07.466Z,30.40
2018-10-19T23:31:36.009Z,29.77
2018-10-19T23:34:04.461Z,33.23
2018-10-19T23:36:32.978Z,35.73
2018-10-19T23:39:01.666Z,42.67
2018-10-19T23:41:30.112Z,45.00
2018-10-19T23:43:58.583Z,46.37
2018-10-19T23:46:27.740Z,49.13
2018-10-19T23:48:56.241Z,47.27
2018-10-19T23:51:24.679Z,47.47
2018-10-19T23:53:53.665Z,53.53
2018-10-19T23:56:22.095Z,46.27
2018-10-19T23:58:50.603Z,43.77
